createdAt,value
2018-05-23T00:01:02.928Z,71.00
2018-05-23T00:03:30.439Z,71.00
2018-05-23T00:05:57.959Z,71.60
2018-05-23T00:08:25.488Z,71.30
2018-05-23T00:10:52.999Z,71.80
2018-05-23T00:13:20.512Z,71.30
2018-05-23T00:15:48.802Z,71.80
2018-05-23T00:18:16.324Z,71.40
2018-05-23T00:20:43.844Z,71.70
2018-05-23T00:23:11.364Z,71.40
2018-05-23T00:25:38.878Z,71.40
2018-05-23T00:28:06.391Z,71.90
2018-05-23T00:30:33.916Z,71.80
2018-05-23T00:33:01.435Z,71.60
2018-05-23T00:35:28.951Z,71.60
2018-05-23T00:37:56.464Z,71.50
2018-05-23T00:40:23.984Z,71.50
2018-05-23T00:42:51.495Z,71.50
2018-05-23T00:45:19.009Z,71.50
2018-05-23T00:47:46.524Z,71.50
2018-05-23T00:50:14.102Z,72.40
2018-05-23T00:52:41.599Z,71.60
2018-05-23T00:55:21.012Z,71.80
2018-05-23T00:57:48.539Z,71.90
2018-05-23T01:00:16.055Z,71.80
2018-05-23T01:02:44.339Z,71.50
2018-05-23T01:05:11.976Z,71.50
2018-05-23T01:07:39.503Z,71.70
2018-05-23T01:10:07.020Z,71.60
2018-05-23T01:12:35.305Z,72.00
2018-05-23T01:15:02.828Z,71.90
2018-05-23T01:17:30.347Z,71.40
2018-05-23T01:19:57.860Z,71.70
2018-05-23T01:22:25.371Z,71.90
2018-05-23T01:24:52.886Z,72.00
2018-05-23T01:27:20.409Z,72.30
2018-05-23T01:29:47.931Z,71.50
2018-05-23T01:32:15.451Z,71.70
2018-05-23T01:34:42.988Z,71.50
2018-05-23T01:37:10.495Z,71.50
2018-05-23T01:39:38.787Z,71.70
2018-05-23T01:42:06.306Z,71.60
2018-05-23T01:44:33.823Z,71.70
2018-05-23T01:47:01.342Z,71.50
2018-05-23T01:49:29.624Z,71.90
2018-05-23T01:51:57.150Z,71.80
2018-05-23T01:54:24.675Z,71.80
2018-05-23T01:56:52.204Z,72.20
2018-05-23T01:59:20.479Z,72.60
2018-05-23T02:01:47.996Z,72.40
2018-05-23T02:04:15.512Z,72.50
2018-05-23T02:06:43.014Z,72.20
2018-05-23T02:09:10.536Z,72.20
2018-05-23T02:11:38.060Z,72.40
2018-05-23T02:14:05.583Z,72.60
2018-05-23T02:16:33.098Z,72.60
2018-05-23T02:19:00.613Z,72.60
2018-05-23T02:21:28.123Z,72.30
2018-05-23T02:23:55.655Z,72.70
2018-05-23T02:26:23.221Z,72.60
2018-05-23T02:28:50.747Z,72.90
2018-05-23T02:31:18.263Z,73.10
2018-05-23T02:33:45.780Z,72.60
2018-05-23T02:36:13.347Z,72.90
2018-05-23T02:38:40.876Z,72.90
2018-05-23T02:41:08.392Z,72.80
2018-05-23T02:43:35.908Z,73.60
2018-05-23T02:46:03.424Z,73.80
2018-05-23T02:48:31.725Z,73.70
2018-05-23T02:50:59.260Z,73.60
2018-05-23T02:53:27.571Z,73.90
2018-05-23T02:55:55.095Z,73.90
2018-05-23T02:58:22.631Z,73.60
2018-05-23T03:00:50.152Z,73.70
2018-05-23T03:03:17.686Z,73.60
2018-05-23T03:05:45.208Z,73.70
2018-05-23T03:08:12.727Z,73.70
2018-05-23T03:10:40.235Z,73.70
2018-05-23T03:13:07.767Z,74.10
2018-05-23T03:15:35.275Z,74.30
2018-05-23T03:18:02.800Z,74.00
2018-05-23T03:20:30.313Z,73.90
2018-05-23T03:22:57.836Z,73.90
2018-05-23T03:25:25.359Z,74.10
2018-05-23T03:27:52.893Z,74.10
2018-05-23T03:30:20.415Z,73.90
2018-05-23T03:32:47.931Z,74.10
2018-05-23T03:35:15.447Z,74.20
2018-05-23T03:37:42.967Z,73.90
2018-05-23T03:40:10.530Z,74.10
2018-05-23T03:42:38.435Z,74.30
2018-05-23T03:45:05.960Z,75.00
2018-05-23T03:47:33.479Z,75.00
2018-05-23T03:50:01.007Z,74.70
2018-05-23T03:52:28.527Z,74.50
2018-05-23T03:54:56.337Z,74.50
2018-05-23T03:57:24.624Z,75.40
2018-05-23T04:00:03.872Z,74.70
2018-05-23T04:02:43.687Z,74.70
2018-05-23T04:05:23.825Z,74.70
2018-05-23T04:07:51.347Z,74.80
2018-05-23T04:10:18.868Z,75.10
2018-05-23T04:12:46.499Z,75.30
2018-05-23T04:15:14.018Z,75.20
2018-05-23T04:17:41.543Z,75.40
2018-05-23T04:20:09.068Z,75.50
2018-05-23T04:22:36.599Z,75.20
2018-05-23T04:25:04.143Z,75.30
2018-05-23T04:27:31.669Z,75.60
2018-05-23T04:29:59.196Z,76.10
2018-05-23T04:32:26.719Z,75.40
2018-05-23T04:34:54.236Z,75.10
2018-05-23T04:37:21.750Z,75.00
2018-05-23T04:39:49.285Z,75.00
2018-05-23T04:42:16.838Z,75.20
2018-05-23T04:44:44.353Z,74.80
2018-05-23T04:47:11.866Z,74.90
2018-05-23T04:49:39.396Z,74.60
2018-05-23T04:52:07.299Z,75.40
2018-05-23T04:54:34.820Z,74.90
2018-05-23T04:57:02.386Z,75.30
2018-05-23T04:59:29.883Z,74.30
2018-05-23T05:01:57.405Z,74.60
2018-05-23T05:04:24.932Z,74.20
2018-05-23T05:06:52.452Z,74.10
2018-05-23T05:09:19.987Z,73.40
2018-05-23T05:11:47.503Z,72.10
2018-05-23T05:14:15.052Z,72.20
2018-05-23T05:16:43.339Z,73.20
2018-05-23T05:19:10.871Z,73.10
2018-05-23T05:21:38.397Z,72.90
2018-05-23T05:24:05.915Z,72.50
2018-05-23T05:26:33.482Z,72.10
2018-05-23T05:29:01.004Z,72.10
2018-05-23T05:31:28.523Z,71.80
2018-05-23T05:33:56.045Z,71.40
2018-05-23T05:36:23.908Z,70.60
2018-05-23T05:38:51.533Z,70.30
2018-05-23T05:41:18.972Z,70.60
2018-05-23T05:43:46.492Z,70.40
2018-05-23T05:46:14.788Z,70.50
2018-05-23T05:48:42.313Z,70.50
2018-05-23T05:51:09.838Z,70.40
2018-05-23T05:53:37.408Z,70.70
2018-05-23T05:56:04.907Z,70.30
2018-05-23T05:58:32.428Z,69.60
2018-05-23T06:00:59.960Z,69.20
2018-05-23T06:03:27.484Z,69.50
2018-05-23T06:05:55.036Z,68.90
2018-05-23T06:08:22.617Z,68.70
2018-05-23T06:10:50.910Z,68.30
2018-05-23T06:13:18.439Z,68.20
2018-05-23T06:15:45.996Z,68.80
2018-05-23T06:18:13.516Z,67.50
2018-05-23T06:20:41.031Z,66.20
2018-05-23T06:23:09.320Z,65.50
2018-05-23T06:25:36.851Z,65.40
2018-05-23T06:28:04.380Z,64.70
2018-05-23T06:30:31.896Z,64.40
2018-05-23T06:33:00.191Z,62.80
2018-05-23T06:35:27.711Z,62.80
2018-05-23T06:37:55.310Z,61.50
2018-05-23T06:40:22.777Z,62.20
2018-05-23T06:42:50.299Z,62.90
2018-05-23T06:45:18.580Z,60.60
2018-05-23T06:47:46.868Z,61.00
2018-05-23T06:50:14.382Z,60.20
2018-05-23T06:52:41.896Z,59.90
2018-05-23T06:55:09.424Z,60.10
2018-05-23T06:57:36.952Z,60.20
2018-05-23T07:00:04.478Z,60.50
2018-05-23T07:02:32.009Z,59.10
2018-05-23T07:04:59.530Z,59.70
2018-05-23T07:07:27.052Z,59.50
2018-05-23T07:09:54.573Z,61.70
2018-05-23T07:12:22.105Z,60.50
2018-05-23T07:14:49.619Z,61.10
2018-05-23T07:17:17.912Z,59.60
2018-05-23T07:19:45.452Z,59.50
2018-05-23T07:22:12.991Z,58.40
2018-05-23T07:24:40.526Z,57.80
2018-05-23T07:27:08.096Z,58.40
2018-05-23T07:29:35.632Z,60.50
2018-05-23T07:32:03.163Z,58.70
2018-05-23T07:34:30.682Z,58.50
2018-05-23T07:36:58.257Z,58.00
2018-05-23T07:39:25.791Z,56.90
2018-05-23T07:41:53.316Z,58.10
2018-05-23T07:44:20.868Z,57.20
2018-05-23T07:46:48.386Z,55.10
2018-05-23T07:49:15.899Z,55.00
2018-05-23T07:51:43.478Z,55.10
2018-05-23T07:54:10.991Z,54.70
2018-05-23T07:56:39.290Z,53.40
2018-05-23T07:59:06.822Z,53.40
2018-05-23T08:01:34.339Z,53.40
2018-05-23T08:04:01.851Z,51.60
2018-05-23T08:06:30.126Z,52.60
2018-05-23T08:08:57.640Z,52.50
2018-05-23T08:11:25.152Z,49.90
2018-05-23T08:13:53.120Z,48.30
2018-05-23T08:16:20.644Z,47.60
2018-05-23T08:18:48.155Z,47.30
2018-05-23T08:21:16.711Z,45.80
2018-05-23T08:23:44.244Z,47.40
2018-05-23T08:26:12.534Z,48.30
2018-05-23T08:28:40.161Z,48.30
2018-05-23T08:31:07.700Z,47.40
2018-05-23T08:33:35.219Z,47.20
2018-05-23T08:36:02.788Z,48.10
2018-05-23T08:38:30.304Z,48.00
2018-05-23T08:40:57.844Z,47.00
2018-05-23T08:43:25.375Z,47.40
2018-05-23T08:45:53.670Z,46.70
2018-05-23T08:48:21.199Z,46.70
2018-05-23T08:50:48.720Z,46.70
2018-05-23T08:53:16.243Z,48.00
2018-05-23T08:55:44.520Z,46.80
2018-05-23T08:58:12.047Z,46.80
2018-05-23T09:00:39.575Z,45.60
2018-05-23T09:03:07.099Z,45.40
2018-05-23T09:05:35.392Z,44.00
2018-05-23T09:08:02.913Z,43.90
2018-05-23T09:10:30.431Z,43.90
2018-05-23T09:12:57.968Z,44.40
2018-05-23T09:15:25.489Z,42.60
2018-05-23T09:17:53.008Z,43.40
2018-05-23T09:20:20.532Z,45.90
2018-05-23T09:22:48.043Z,46.40
2018-05-23T09:25:15.572Z,45.10
2018-05-23T09:27:43.096Z,45.10
2018-05-23T09:30:10.605Z,44.80
2018-05-23T09:32:38.125Z,45.30
2018-05-23T09:35:06.414Z,45.30
2018-05-23T09:37:33.938Z,45.30
2018-05-23T09:40:01.466Z,45.80
2018-05-23T09:42:28.980Z,45.30
2018-05-23T09:44:56.491Z,44.50
2018-05-23T09:47:24.007Z,45.00
2018-05-23T09:49:51.520Z,44.90
2018-05-23T09:52:19.040Z,45.30
2018-05-23T09:54:46.553Z,44.40
2018-05-23T09:57:14.079Z,43.50
2018-05-23T09:59:41.597Z,43.00
2018-05-23T10:02:09.878Z,43.40
2018-05-23T10:04:37.404Z,43.40
2018-05-23T10:07:04.919Z,43.00
2018-05-23T10:09:33.121Z,43.80
2018-05-23T10:12:00.839Z,43.20
2018-05-23T10:14:28.371Z,42.30
2018-05-23T10:16:55.884Z,43.20
2018-05-23T10:19:23.407Z,42.60
2018-05-23T10:21:50.939Z,43.00
2018-05-23T10:24:18.460Z,43.40
2018-05-23T10:26:45.989Z,42.10
2018-05-23T10:29:13.506Z,41.80
2018-05-23T10:31:41.023Z,42.40
2018-05-23T10:34:08.568Z,44.10
2018-05-23T10:36:36.092Z,44.00
2018-05-23T10:39:03.680Z,43.60
2018-05-23T10:41:31.163Z,43.70
2018-05-23T10:43:58.695Z,44.20
2018-05-23T10:46:26.229Z,44.60
2018-05-23T10:48:53.744Z,44.90
2018-05-23T10:51:21.267Z,43.80
2018-05-23T10:53:48.814Z,43.10
2018-05-23T10:56:16.330Z,43.60
2018-05-23T10:58:44.668Z,44.00
2018-05-23T11:01:12.185Z,44.00
2018-05-23T11:03:39.728Z,44.30
2018-05-23T11:06:07.240Z,45.50
2018-05-23T11:08:34.764Z,45.60
2018-05-23T11:11:02.295Z,46.10
2018-05-23T11:13:29.807Z,44.00
2018-05-23T11:15:57.320Z,45.10
2018-05-23T11:18:24.840Z,46.30
2018-05-23T11:20:52.353Z,45.40
2018-05-23T11:23:19.872Z,46.30
2018-05-23T11:25:47.394Z,46.40
2018-05-23T11:28:14.908Z,45.50
2018-05-23T11:30:42.420Z,45.90
2018-05-23T11:33:09.944Z,45.90
2018-05-23T11:35:37.468Z,45.90
2018-05-23T11:38:04.989Z,46.50
2018-05-23T11:40:32.516Z,46.90
2018-05-23T11:43:00.811Z,45.40
2018-05-23T11:45:28.336Z,45.30
2018-05-23T11:47:55.847Z,46.00
2018-05-23T11:50:23.378Z,45.50
2018-05-23T11:52:51.659Z,45.50
2018-05-23T11:55:19.176Z,45.50
2018-05-23T11:57:46.700Z,45.00
2018-05-23T12:00:14.222Z,44.80
2018-05-23T12:02:42.512Z,45.50
2018-05-23T12:05:10.027Z,45.50
2018-05-23T12:07:37.559Z,45.20
2018-05-23T12:10:06.116Z,46.20
2018-05-23T12:12:34.399Z,47.10
2018-05-23T12:15:01.924Z,47.10
2018-05-23T12:17:29.454Z,46.50
2018-05-23T12:19:56.976Z,46.50
2018-05-23T12:22:25.265Z,46.90
2018-05-23T12:24:52.778Z,47.60
2018-05-23T12:27:20.297Z,46.60
2018-05-23T12:29:47.815Z,45.90
2018-05-23T12:32:16.102Z,46.00
2018-05-23T12:34:43.630Z,45.90
2018-05-23T12:37:11.166Z,46.70
2018-05-23T12:39:38.683Z,46.40
2018-05-23T12:42:06.975Z,46.40
2018-05-23T12:44:34.499Z,46.30
2018-05-23T12:47:02.027Z,46.80
2018-05-23T12:49:29.544Z,45.40
2018-05-23T12:51:57.823Z,44.00
2018-05-23T12:54:25.339Z,43.90
2018-05-23T12:56:52.863Z,44.50
2018-05-23T12:59:20.380Z,44.50
2018-05-23T13:01:47.909Z,43.90
2018-05-23T13:04:15.427Z,43.80
2018-05-23T13:06:43.718Z,42.20
2018-05-23T13:09:11.383Z,42.10
2018-05-23T13:11:38.915Z,42.80
2018-05-23T13:14:06.434Z,43.20
2018-05-23T13:16:33.947Z,44.00
2018-05-23T13:19:01.472Z,43.10
2018-05-23T13:21:28.992Z,43.70
2018-05-23T13:23:56.525Z,43.10
2018-05-23T13:26:24.054Z,42.10
2018-05-23T13:28:51.568Z,43.30
2018-05-23T13:31:19.084Z,43.40
2018-05-23T13:33:46.608Z,43.00
2018-05-23T13:36:14.128Z,42.90
2018-05-23T13:38:41.656Z,42.90
2018-05-23T13:41:09.173Z,43.00
2018-05-23T13:43:36.691Z,43.30
2018-05-23T13:46:04.972Z,42.50
2018-05-23T13:48:32.488Z,42.50
2018-05-23T13:51:00.001Z,42.00
2018-05-23T13:53:27.511Z,42.50
2018-05-23T13:55:55.036Z,42.00
2018-05-23T13:58:22.553Z,43.60
2018-05-23T14:00:50.079Z,41.80
2018-05-23T14:03:17.602Z,43.60
2018-05-23T14:05:45.115Z,41.80
2018-05-23T14:08:12.638Z,42.10
2018-05-23T14:10:40.160Z,42.20
2018-05-23T14:13:07.680Z,41.80
2018-05-23T14:15:35.191Z,42.00
2018-05-23T14:18:03.464Z,41.80
2018-05-23T14:20:30.987Z,41.70
2018-05-23T14:22:58.516Z,41.60
2018-05-23T14:25:26.026Z,42.40
2018-05-23T14:27:53.544Z,42.80
2018-05-23T14:30:21.056Z,42.70
2018-05-23T14:32:48.579Z,40.80
2018-05-23T14:35:16.088Z,40.70
2018-05-23T14:37:44.408Z,40.80
2018-05-23T14:40:11.920Z,39.80
2018-05-23T14:42:39.446Z,39.80
2018-05-23T14:45:06.963Z,40.50
2018-05-23T14:47:35.252Z,40.10
2018-05-23T14:50:02.787Z,40.00
2018-05-23T14:52:31.068Z,40.90
2018-05-23T14:54:58.587Z,40.80
2018-05-23T14:57:26.112Z,41.90
2018-05-23T14:59:53.623Z,41.90
2018-05-23T15:02:21.158Z,41.70
2018-05-23T15:04:48.678Z,40.70
2018-05-23T15:07:16.518Z,40.40
2018-05-23T15:09:44.032Z,40.60
2018-05-23T15:12:12.319Z,40.60
2018-05-23T15:14:39.840Z,40.20
2018-05-23T15:17:07.360Z,41.00
2018-05-23T15:19:34.873Z,41.40
2018-05-23T15:22:02.396Z,41.00
2018-05-23T15:24:29.911Z,41.70
2018-05-23T15:26:57.428Z,41.00
2018-05-23T15:29:24.939Z,40.60
2018-05-23T15:31:52.456Z,40.60
2018-05-23T15:34:19.976Z,41.30
2018-05-23T15:36:47.501Z,41.00
2018-05-23T15:39:15.032Z,41.10
2018-05-23T15:41:42.580Z,39.50
2018-05-23T15:44:10.097Z,39.30
2018-05-23T15:46:37.643Z,38.00
2018-05-23T15:49:05.156Z,39.00
2018-05-23T15:51:32.675Z,39.40
2018-05-23T15:54:00.197Z,38.40
2018-05-23T15:56:27.716Z,38.90
2018-05-23T15:58:55.240Z,38.60
2018-05-23T16:01:22.771Z,40.00
2018-05-23T16:03:50.293Z,40.20
2018-05-23T16:06:17.817Z,38.60
2018-05-23T16:08:45.355Z,38.90
2018-05-23T16:11:12.878Z,38.80
2018-05-23T16:13:40.433Z,39.10
2018-05-23T16:16:08.015Z,39.20
2018-05-23T16:18:36.297Z,39.20
2018-05-23T16:21:04.575Z,39.20
2018-05-23T16:23:32.091Z,39.00
2018-05-23T16:25:59.604Z,39.50
2018-05-23T16:28:27.142Z,39.80
2018-05-23T16:30:55.428Z,39.70
2018-05-23T16:33:22.963Z,39.60
2018-05-23T16:35:50.490Z,39.60
2018-05-23T16:38:18.127Z,40.50
2018-05-23T16:40:45.662Z,39.80
2018-05-23T16:43:14.015Z,40.60
2018-05-23T16:45:41.539Z,39.30
2018-05-23T16:48:09.062Z,39.60
2018-05-23T16:50:37.356Z,40.00
2018-05-23T16:53:05.639Z,39.60
2018-05-23T16:55:33.147Z,39.60
2018-05-23T16:58:00.667Z,40.00
2018-05-23T17:00:28.191Z,39.80
2018-05-23T17:02:55.782Z,40.30
2018-05-23T17:05:23.245Z,40.20
2018-05-23T17:07:50.772Z,39.30
2018-05-23T17:10:18.283Z,39.30
2018-05-23T17:12:45.797Z,38.30
2018-05-23T17:15:13.315Z,37.40
2018-05-23T17:17:40.907Z,37.10
2018-05-23T17:20:08.425Z,37.10
2018-05-23T17:22:35.963Z,37.00
2018-05-23T17:25:03.509Z,38.00
2018-05-23T17:27:31.130Z,37.90
2018-05-23T17:29:58.564Z,38.30
2018-05-23T17:32:26.073Z,38.60
2018-05-23T17:34:54.189Z,39.20
2018-05-23T17:37:21.705Z,39.20
2018-05-23T17:39:49.231Z,38.50
2018-05-23T17:42:16.743Z,38.50
2018-05-23T17:44:44.263Z,38.40
2018-05-23T17:47:11.823Z,38.40
2018-05-23T17:49:39.340Z,38.10
2018-05-23T17:52:06.865Z,37.80
2018-05-23T17:54:34.404Z,38.00
2018-05-23T17:57:01.939Z,38.70
2018-05-23T17:59:30.227Z,38.20
2018-05-23T18:01:57.772Z,38.20
2018-05-23T18:04:25.285Z,39.00
2018-05-23T18:06:53.576Z,39.10
2018-05-23T18:09:21.105Z,39.00
2018-05-23T18:11:48.631Z,39.30
2018-05-23T18:14:16.200Z,39.90
2018-05-23T18:16:43.770Z,39.90
2018-05-23T18:19:11.269Z,39.30
2018-05-23T18:21:38.792Z,40.10
2018-05-23T18:24:06.311Z,39.50
2018-05-23T18:26:33.848Z,39.80
2018-05-23T18:29:02.128Z,40.10
2018-05-23T18:31:29.650Z,40.10
2018-05-23T18:33:57.164Z,39.50
2018-05-23T18:36:24.923Z,39.70
2018-05-23T18:38:52.500Z,39.80
2018-05-23T18:41:20.016Z,40.90
2018-05-23T18:43:47.541Z,39.80
2018-05-23T18:46:15.055Z,40.20
2018-05-23T18:48:43.344Z,40.50
2018-05-23T18:51:10.901Z,40.50
2018-05-23T18:53:38.488Z,40.40
2018-05-23T18:56:06.749Z,41.70
2018-05-23T18:58:34.273Z,41.60
2018-05-23T19:01:01.803Z,41.80
2018-05-23T19:03:29.326Z,41.40
2018-05-23T19:05:56.852Z,42.40
2018-05-23T19:08:24.386Z,42.30
2018-05-23T19:10:51.905Z,42.50
2018-05-23T19:13:19.432Z,42.60
2018-05-23T19:15:47.040Z,42.80
2018-05-23T19:18:14.512Z,45.00
2018-05-23T19:20:42.027Z,44.40
2018-05-23T19:23:10.308Z,44.10
2018-05-23T19:25:37.839Z,44.10
2018-05-23T19:28:05.370Z,44.80
2018-05-23T19:30:32.896Z,44.40
2018-05-23T19:33:01.189Z,45.40
2018-05-23T19:35:28.712Z,45.30
2018-05-23T19:37:56.240Z,46.20
2018-05-23T19:40:23.791Z,46.30
2018-05-23T19:42:51.313Z,46.10
2018-05-23T19:45:18.829Z,46.00
2018-05-23T19:47:46.353Z,47.10
2018-05-23T19:50:13.877Z,48.00
2018-05-23T19:52:41.493Z,48.80
2018-05-23T19:55:08.956Z,50.10
2018-05-23T19:57:36.476Z,48.20
2018-05-23T20:00:03.987Z,48.70
2018-05-23T20:02:31.500Z,49.60
2018-05-23T20:04:59.889Z,48.80
2018-05-23T20:07:27.404Z,48.70
2018-05-23T20:09:54.927Z,48.00
2018-05-23T20:12:22.451Z,49.40
2018-05-23T20:14:49.978Z,48.90
2018-05-23T20:17:17.497Z,48.50
2018-05-23T20:19:45.016Z,49.90
2018-05-23T20:22:12.534Z,48.80
2018-05-23T20:24:40.051Z,51.70
2018-05-23T20:27:07.586Z,52.20
2018-05-23T20:29:35.109Z,52.10
2018-05-23T20:32:02.636Z,53.40
2018-05-23T20:34:30.151Z,51.20
2018-05-23T20:36:57.667Z,50.90
2018-05-23T20:39:25.211Z,51.10
2018-05-23T20:41:52.721Z,51.80
2018-05-23T20:44:20.241Z,50.50
2018-05-23T20:46:47.763Z,53.00
2018-05-23T20:49:15.298Z,52.90
2018-05-23T20:51:42.811Z,53.20
2018-05-23T20:54:10.339Z,53.00
2018-05-23T20:56:37.865Z,51.80
2018-05-23T20:59:05.430Z,52.90
2018-05-23T21:01:32.947Z,53.00
2018-05-23T21:04:00.469Z,51.70
2018-05-23T21:06:27.988Z,52.40
2018-05-23T21:08:55.563Z,53.50
2018-05-23T21:11:23.075Z,52.90
2018-05-23T21:13:50.596Z,54.00
2018-05-23T21:16:18.125Z,54.10
2018-05-23T21:18:45.639Z,54.40
2018-05-23T21:21:13.169Z,52.00
2018-05-23T21:23:40.687Z,53.10
2018-05-23T21:26:08.204Z,52.40
2018-05-23T21:28:35.725Z,54.50
2018-05-23T21:31:03.248Z,54.60
2018-05-23T21:33:30.767Z,53.30
2018-05-23T21:35:58.300Z,53.90
2018-05-23T21:38:25.825Z,54.40
2018-05-23T23:05:51.991Z,49.80
2018-05-23T23:08:19.511Z,49.70
2018-05-23T23:10:47.027Z,49.60
2018-05-23T23:13:14.553Z,50.50
2018-05-23T23:15:42.839Z,49.70
2018-05-23T23:18:10.364Z,49.70
2018-05-23T23:20:37.884Z,51.40
2018-05-23T23:23:05.396Z,51.00
2018-05-23T23:25:32.922Z,51.10
2018-05-23T23:28:00.445Z,52.40
2018-05-23T23:30:27.963Z,50.40
2018-05-23T23:32:55.476Z,51.20
2018-05-23T23:35:22.995Z,51.20
2018-05-23T23:37:51.284Z,49.60
2018-05-23T23:40:18.927Z,49.60
2018-05-23T23:42:46.444Z,50.10
2018-05-23T23:45:13.963Z,51.40
2018-05-23T23:47:41.479Z,50.80
2018-05-23T23:50:09.014Z,51.20
2018-05-23T23:52:36.543Z,50.30
2018-05-23T23:55:04.056Z,50.30
2018-05-23T23:57:31.571Z,49.60
2018-05-23T23:59:59.860Z,51.20
